Airfield :
LOGIN :

Register | Disclaimer

   EN    FR    IT 

 










Legend :    VFR   Marginal VFR   IFR   Intensive IFR   Very Intensive IFR
Visi :
Ceiling :
>= 8 km
>= 3000ft
5 to 8 km
1000 to 3000 ft
1500m to 5 km
500 to 1000 ft
800 to 1500m
200 to 500 ft
< 800m
< 200 ft
Symbols :   Thunderstorms  Fog  Heavy snow  Heavy precipitations  Wind > 20 kt
SIGMETs :     Misc.  Thunderstorms  Icing  Turbulence  Mountain Waves  Volcanic Ashes






- Airport Elevation : 1416 ft
- IATA code : ZRH


LSZH - Zurich

CURRENT METAR :
  • 211420Z 19005KT 1500 0750N R14/1200D R16/1200D R28/1600D R34/1300N +SHSN FEW005 SCT008 BKN010 00/M00 Q1019 TEMPO 0800 VV006

EXPIRED METARs :
  • 211350Z 28006KT 220V340 2800 1200N R14/P2000N R16/P2000N R28/P2000N R34/P2000N SHSN FEW005 FEW011CB BKN012 01/00 Q1019 TEMPO 1500 BKN008
  • 211320Z 16007KT 9999 -SHRASN FEW014 FEW018TCU SCT025 BKN040 04/00 Q1018 TEMPO 4000 SHRASN BKN012
  • 211250Z 16007KT 120V180 9999 VCSH FEW015 FEW020TCU SCT040 BKN060 05/01 Q1018 TEMPO 4000 SHRASN BKN012
  • 211220Z 14004KT 090V190 9999 FEW012 FEW015TCU SCT017 BKN050 04/M00 Q1018 TEMPO 4500 SHRASN BKN012
  • 211150Z 10004KT 050V150 9999 -DZ FEW010 SCT018 BKN062 04/00 Q1018 TEMPO 4500 SHRASN BKN012
  • 211120Z VRB03KT 9999 -RA FEW005 SCT012 BKN040 03/01 Q1018 TEMPO 4500 -RASN BKN012
  • 211050Z 01003KT 300V070 7000 -RA FEW005 SCT007 BKN012 03/01 Q1018 TEMPO BKN008
  • 211020Z 36006KT 4500 -SN FEW006 SCT009 BKN012 02/01 Q1018 RESN TEMPO 5000 NSW
  • 210950Z 35006KT 2700 SN FEW004 BKN006 BKN013 01/01 Q1018 TEMPO 5000 NSW SCT006

TAF AMD TAF LSZH
Valid from the 21 at 12:00 until the 22 at 18:00 UTC


211259Z 2112/2218 15007KT 9999 FEW020TCU BKN050 TX05/2114Z TN00/2203Z TX04/2215Z
TEMPO 2113/2120 SHRA
PROB40
TEMPO 2113/2118 30010KT 4000 SHSNRA BKN012
PROB30
TEMPO 2113/2118 2000 SHSN BKN008
PROB30
TEMPO 2118/2121 4000 SHRASN BKN012
BECMG 2200/2203 03007KT 4000 -SNRA BKN010
PROB40
TEMPO 2203/2207 2000 SN VV006
PROB40
TEMPO 2209/2216 06013G25KT
BECMG 2210/2213 8000 NSW BKN018
ATIS : +41 43 816 2295 (DEP) +41 43 816 2294 (ARR)



MET'MAP, your aeronautical weather chart ! - Copyright ORBIFLY December 2007 - Disclaimer

ORBIFLY MET'MAP TEAM :

Programming & Development : Alexandra Zaïnal
Original concept : Baudouin d'Aumeries
Technical & hardware support : Manuel Goepfert
Assistance : Marc-Olivier Méhu




SOURCES & CREDITS :

   NOAA